Time;durP1;ratioP1;P1;durP2;ratioP2;P2;SDS_P1;SDS_P2;PMS_P1;PMS_P2;Temp;Humidity;BMP_temperature;BMP_pressure;BME280_temperature;BME280_humidity;BME280_pressure;Samples;Min_cycle;Max_cycle;Signal;HPM_P1;HPM_P2
2021/04/20 00:00:11;;;;;;;11.57;7.82;;;19.90;55.60;;;;;;5050488;28;20462;-66
2021/04/20 00:02:38;;;;;;;7.63;6.43;;;19.90;56.80;;;;;;5074187;28;20024;-66
2021/04/20 00:05:08;;;;;;;17.98;6.78;;;19.90;54.50;;;;;;5073259;28;20028;-67
2021/04/20 00:07:35;;;;;;;9.27;6.53;;;20.00;55.30;;;;;;5067170;28;20032;-68
2021/04/20 00:10:11;;;;;;;8.88;6.47;;;20.00;55.10;;;;;;5070085;28;20585;-68
2021/04/20 00:12:39;;;;;;;8.40;6.05;;;20.10;55.80;;;;;;5073807;28;20120;-65
2021/04/20 00:15:10;;;;;;;7.93;5.55;;;20.40;55.20;;;;;;5073343;28;20497;-64
2021/04/20 00:17:38;;;;;;;8.77;5.07;;;20.70;54.00;;;;;;5077546;28;20077;-67
2021/04/20 00:20:11;;;;;;;12.70;5.38;;;20.80;52.80;;;;;;5072661;28;20020;-66
2021/04/20 00:22:39;;;;;;;5.55;4.03;;;20.80;51.70;;;;;;5077442;28;20036;-66
2021/04/20 00:25:07;;;;;;;6.35;4.00;;;20.90;50.60;;;;;;5073984;28;20607;-68
2021/04/20 00:27:34;;;;;;;5.60;3.63;;;21.00;48.10;;;;;;5079274;28;20420;-67
2021/04/20 00:30:01;;;;;;;5.88;3.60;;;21.10;48.90;;;;;;5077990;28;20024;-66
2021/04/20 00:32:28;;;;;;;7.63;3.70;;;21.10;49.20;;;;;;5078279;28;20213;-65
2021/04/20 00:34:56;;;;;;;5.88;3.92;;;21.20;49.40;;;;;;5077336;28;20036;-67
2021/04/20 00:37:23;;;;;;;5.43;4.15;;;21.40;49.20;;;;;;5050256;28;20107;-67
2021/04/20 00:39:50;;;;;;;4.25;3.25;;;21.50;49.70;;;;;;5077050;28;20032;-66
2021/04/20 00:42:18;;;;;;;5.07;2.80;;;21.70;46.60;;;;;;5064357;28;20028;-67
2021/04/20 00:44:45;;;;;;;9.63;3.42;;;21.80;45.40;;;;;;5072677;28;20055;-67
2021/04/20 00:47:13;;;;;;;7.47;3.47;;;21.80;45.30;;;;;;5075098;28;20763;-66
2021/04/20 00:49:40;;;;;;;8.00;3.90;;;21.70;46.40;;;;;;5075404;28;20040;-66
2021/04/20 00:52:07;;;;;;;5.18;3.35;;;21.70;46.20;;;;;;5079006;28;20028;-67
2021/04/20 00:54:35;;;;;;;5.75;2.45;;;21.80;44.70;;;;;;5074784;28;20491;-65
2021/04/20 00:57:02;;;;;;;4.55;2.72;;;21.80;45.20;;;;;;5076269;28;20031;-66
2021/04/20 00:59:29;;;;;;;4.13;2.67;;;21.90;45.00;;;;;;5077611;28;20024;-65
2021/04/20 01:01:57;;;;;;;4.82;3.15;;;22.10;44.40;;;;;;5078046;28;20637;-63
2021/04/20 01:04:24;;;;;;;4.75;3.13;;;22.20;44.60;;;;;;5074032;28;20028;-66
2021/04/20 01:06:52;;;;;;;4.53;2.40;;;22.20;45.30;;;;;;5075744;28;20036;-63
2021/04/20 01:09:20;;;;;;;4.72;2.40;;;22.30;42.80;;;;;;5075572;28;20115;-65
2021/04/20 01:11:48;;;;;;;4.47;2.00;;;22.20;42.50;;;;;;5076777;28;20028;-63
2021/04/20 01:14:16;;;;;;;3.65;2.40;;;22.10;41.70;;;;;;5073897;28;20020;-63
2021/04/20 01:16:43;;;;;;;7.78;3.78;;;22.00;43.00;;;;;;5076193;28;20127;-66
2021/04/20 01:19:16;;;;;;;6.25;4.60;;;22.20;45.50;;;;;;5075265;28;20031;-66
2021/04/20 01:21:45;;;;;;;5.45;2.80;;;22.40;44.10;;;;;;5073754;28;20359;-66
2021/04/20 01:24:12;;;;;;;4.75;2.50;;;22.50;42.30;;;;;;5076759;28;20085;-64
2021/04/20 01:26:43;;;;;;;6.72;3.60;;;22.70;42.90;;;;;;5073490;28;20024;-63
2021/04/20 01:29:11;;;;;;;8.00;4.05;;;22.60;43.80;;;;;;5073707;28;20544;-63
2021/04/20 01:31:42;;;;;;;8.25;3.80;;;22.60;43.50;;;;;;5074577;28;20039;-65
2021/04/20 01:34:09;;;;;;;7.38;3.15;;;22.80;42.30;;;;;;5077850;28;20039;-64
2021/04/20 01:36:37;;;;;;;5.65;3.03;;;22.80;43.80;;;;;;5075568;28;20021;-66
2021/04/20 01:39:10;;;;;;;3.95;2.25;;;22.90;43.70;;;;;;5072437;28;20043;-67
2021/04/20 01:41:40;;;;;;;84.03;76.15;;;23.10;42.60;;;;;;5075337;28;20028;-69
2021/04/20 01:44:08;;;;;;;3.92;2.20;;;23.10;42.80;;;;;;5074155;28;20175;-64
2021/04/20 01:46:36;;;;;;;5.88;2.47;;;22.90;42.20;;;;;;5067760;28;20557;-67
2021/04/20 01:49:03;;;;;;;5.28;2.35;;;22.90;42.60;;;;;;5078556;28;20066;-67
2021/04/20 01:51:31;;;;;;;6.70;2.42;;;22.90;43.20;;;;;;5076277;28;20430;-65
2021/04/20 01:53:59;;;;;;;7.22;2.55;;;22.90;42.60;;;;;;5078151;28;20030;-67
2021/04/20 01:56:29;;;;;;;5.45;2.33;;;23.10;43.60;;;;;;5073792;28;20032;-69
2021/04/20 01:58:59;;;;;;;5.20;2.03;;;23.40;42.80;;;;;;5074233;28;20063;-67
2021/04/20 02:01:28;;;;;;;5.00;2.63;;;23.70;41.90;;;;;;5075859;28;20049;-68
2021/04/20 02:03:56;;;;;;;3.25;2.28;;;23.80;42.30;;;;;;5075150;28;20039;-69
2021/04/20 02:06:26;;;;;;;4.00;2.20;;;23.80;43.20;;;;;;5071766;28;20036;-69
2021/04/20 02:08:53;;;;;;;4.93;2.55;;;23.90;41.60;;;;;;5058566;28;20505;-68
2021/04/20 02:11:23;;;;;;;5.85;2.20;;;24.10;41.10;;;;;;5054807;28;20028;-69
2021/04/20 02:13:51;;;;;;;4.95;2.60;;;24.10;41.90;;;;;;5076687;28;20075;-64
2021/04/20 02:16:20;;;;;;;3.08;2.38;;;24.20;42.50;;;;;;5074482;28;20032;-64
2021/04/20 02:18:54;;;;;;;4.95;2.38;;;24.20;41.60;;;;;;5076703;28;20023;-69
2021/04/20 02:21:22;;;;;;;4.40;2.53;;;24.20;41.20;;;;;;5072417;28;20028;-70
2021/04/20 02:23:51;;;;;;;4.45;2.70;;;24.10;42.00;;;;;;5074509;28;20051;-65
2021/04/20 02:26:40;;;;;;;2.35;1.85;;;24.00;40.80;;;;;;5074010;28;20029;-69
2021/04/20 02:29:10;;;;;;;5.22;2.13;;;23.90;41.70;;;;;;5069894;28;20021;-69
2021/04/20 02:31:42;;;;;;;4.78;2.70;;;23.80;42.20;;;;;;5075932;28;20028;-69
2021/04/20 02:34:13;;;;;;;4.63;2.40;;;23.70;42.20;;;;;;5075560;28;20016;-70
2021/04/20 02:36:42;;;;;;;3.22;2.38;;;24.00;42.60;;;;;;5075824;28;20024;-68
2021/04/20 02:39:12;;;;;;;4.75;2.80;;;24.30;41.60;;;;;;5072250;28;20455;-66
2021/04/20 02:41:47;;;;;;;6.22;2.58;;;24.40;41.00;;;;;;5075743;28;20035;-71
2021/04/20 02:44:15;;;;;;;4.18;2.47;;;24.40;39.50;;;;;;5073822;28;20036;-69
2021/04/20 02:46:44;;;;;;;5.07;2.75;;;24.30;40.70;;;;;;5101769;22;20049;-68
2021/04/20 02:49:15;;;;;;;5.82;3.60;;;24.10;42.50;;;;;;5054557;28;20028;-69
2021/04/20 02:51:44;;;;;;;5.90;2.92;;;24.10;42.80;;;;;;5056018;28;20043;-70
2021/04/20 02:54:12;;;;;;;5.45;3.25;;;24.20;42.60;;;;;;5054816;28;20033;-68
2021/04/20 02:56:40;;;;;;;5.70;3.00;;;24.30;42.90;;;;;;5058048;28;20035;-68
2021/04/20 02:59:11;;;;;;;6.13;3.53;;;24.50;43.70;;;;;;5053923;28;20052;-66
2021/04/20 03:01:42;;;;;;;4.57;2.97;;;24.50;43.30;;;;;;5058333;28;20126;-65
2021/04/20 03:04:14;;;;;;;4.85;3.00;;;24.40;43.50;;;;;;5055166;28;20033;-68
2021/04/20 03:06:42;;;;;;;4.68;2.72;;;24.50;42.40;;;;;;5057360;28;20025;-68
2021/04/20 03:09:10;;;;;;;3.20;2.03;;;24.90;41.70;;;;;;5063187;28;20020;-65
2021/04/20 03:11:51;;;;;;;4.65;2.20;;;25.00;40.70;;;;;;5060243;28;20071;-66
2021/04/20 03:14:19;;;;;;;4.50;2.60;;;24.90;40.40;;;;;;5060972;28;20056;-65
2021/04/20 03:16:46;;;;;;;7.93;2.88;;;24.80;40.60;;;;;;5058983;28;20028;-65
2021/04/20 03:19:14;;;;;;;5.97;2.60;;;24.60;40.50;;;;;;5059685;28;20030;-66
2021/04/20 03:21:42;;;;;;;4.65;2.88;;;24.40;41.60;;;;;;5057703;28;20029;-67
2021/04/20 03:24:21;;;;;;;6.03;2.85;;;24.40;42.00;;;;;;5058746;28;20443;-68
2021/04/20 03:26:48;;;;;;;3.13;2.03;;;24.40;41.70;;;;;;5064462;28;20031;-65
2021/04/20 03:29:15;;;;;;;6.00;2.15;;;24.40;41.70;;;;;;5062150;28;20016;-68
2021/04/20 03:31:43;;;;;;;4.75;2.28;;;24.30;41.60;;;;;;5061432;28;20131;-66
2021/04/20 03:34:13;;;;;;;4.85;2.42;;;24.30;41.80;;;;;;5063093;28;20378;-66
2021/04/20 03:36:55;;;;;;;4.65;2.05;;;24.30;42.40;;;;;;5063585;28;20108;-67
2021/04/20 03:39:24;;;;;;;6.18;2.50;;;24.40;42.70;;;;;;5060053;28;20024;-66
2021/04/20 03:42:21;;;;;;;3.65;1.90;;;24.30;42.00;;;;;;5061277;28;20013;-68
2021/04/20 03:45:03;;;;;;;5.97;2.47;;;24.20;42.50;;;;;;5061586;28;20018;-64
2021/04/20 03:47:54;;;;;;;3.83;2.10;;;24.20;42.80;;;;;;5061219;28;20052;-68
2021/04/20 03:50:28;;;;;;;3.13;1.80;;;24.20;43.00;;;;;;5053407;28;20036;-63
2021/04/20 03:53:06;;;;;;;3.60;2.42;;;24.00;43.00;;;;;;5063111;28;20032;-63
2021/04/20 03:55:35;;;;;;;5.82;2.33;;;23.90;43.00;;;;;;5060422;28;20032;-65
2021/04/20 03:58:05;;;;;;;5.90;2.22;;;23.90;43.40;;;;;;5063100;28;20032;-68
2021/04/20 04:00:35;;;;;;;3.72;2.20;;;23.70;43.20;;;;;;5064574;28;20020;-68
2021/04/20 04:03:06;;;;;;;3.40;1.98;;;23.60;44.10;;;;;;5065848;28;20017;-66
2021/04/20 04:05:35;;;;;;;4.80;2.13;;;23.50;43.50;;;;;;5066623;28;20047;-66
2021/04/20 04:08:05;;;;;;;3.85;1.85;;;23.40;42.40;;;;;;5067524;28;20102;-68
2021/04/20 04:10:35;;;;;;;4.27;2.07;;;23.50;42.50;;;;;;4365822;28;10021425;-68
2021/04/20 04:13:11;;;;;;;3.78;2.03;;;23.50;41.60;;;;;;5061923;28;20029;-70
2021/04/20 04:15:41;;;;;;;4.53;1.88;;;23.50;42.50;;;;;;5062114;28;20370;-68
2021/04/20 04:18:12;;;;;;;2.42;1.60;;;23.70;42.00;;;;;;5061834;28;20025;-70
2021/04/20 04:20:40;;;;;;;2.35;1.60;;;23.80;42.00;;;;;;5063999;28;20379;-68
2021/04/20 04:23:19;;;;;;;3.63;1.65;;;23.80;40.50;;;;;;5061295;28;20028;-73
2021/04/20 04:26:08;;;;;;;2.28;2.00;;;23.60;41.80;;;;;;5063095;28;20024;-73
2021/04/20 04:28:38;;;;;;;6.25;1.83;;;23.60;42.00;;;;;;5062561;28;20055;-67
2021/04/20 04:31:07;;;;;;;3.05;1.40;;;23.60;43.00;;;;;;5063298;28;20039;-67
2021/04/20 04:33:40;;;;;;;4.93;1.65;;;23.70;41.90;;;;;;5061737;28;20434;-66
2021/04/20 04:36:11;;;;;;;3.63;1.70;;;23.90;40.40;;;;;;5062706;28;20440;-71
2021/04/20 04:38:41;;;;;;;5.63;1.42;;;23.90;39.80;;;;;;5059239;28;20154;-71
2021/04/20 04:41:09;;;;;;;4.22;1.58;;;24.10;40.50;;;;;;5060245;28;20013;-67
2021/04/20 04:43:37;;;;;;;3.65;1.38;;;24.40;39.20;;;;;;5058480;28;20048;-67
2021/04/20 04:46:05;;;;;;;1.98;1.20;;;24.60;39.20;;;;;;5062643;28;20032;-72
2021/04/20 04:48:33;;;;;;;3.78;1.50;;;24.50;39.00;;;;;;5063768;28;20466;-67
2021/04/20 04:51:01;;;;;;;4.03;1.85;;;24.60;38.40;;;;;;5055959;28;20025;-67
2021/04/20 04:53:30;;;;;;;4.93;1.60;;;24.70;39.20;;;;;;5058527;28;20021;-70
2021/04/20 04:56:05;;;;;;;2.13;1.42;;;24.90;38.30;;;;;;5062730;28;20393;-69
2021/04/20 04:58:36;;;;;;;2.65;1.73;;;24.80;37.80;;;;;;5058819;28;20020;-72
2021/04/20 05:01:04;;;;;;;3.92;1.33;;;24.70;38.10;;;;;;5062198;28;20555;-67
2021/04/20 05:03:32;;;;;;;4.57;1.70;;;24.50;38.20;;;;;;5060901;28;20125;-66
2021/04/20 05:06:00;;;;;;;4.82;3.20;;;24.40;38.30;;;;;;5063566;28;20103;-66
2021/04/20 05:08:28;;;;;;;3.15;1.77;;;24.10;39.30;;;;;;5063459;28;20376;-66
2021/04/20 05:11:02;;;;;;;2.58;1.35;;;23.90;39.30;;;;;;5059210;28;20040;-66
2021/04/20 05:13:34;;;;;;;2.45;1.42;;;23.80;39.40;;;;;;5059208;28;20025;-66
2021/04/20 05:16:06;;;;;;;2.45;1.42;;;23.60;39.50;;;;;;5062247;28;20044;-63
2021/04/20 05:18:35;;;;;;;2.70;1.50;;;23.40;39.60;;;;;;5058193;28;20028;-66
2021/04/20 05:21:03;;;;;;;2.95;1.40;;;23.40;40.80;;;;;;5057977;28;20541;-66
2021/04/20 05:23:30;;;;;;;3.00;1.77;;;23.80;40.90;;;;;;5058256;28;20025;-65
2021/04/20 05:25:57;;;;;;;3.05;1.50;;;24.00;39.60;;;;;;5059122;28;20036;-65
2021/04/20 05:28:25;;;;;;;3.28;1.13;;;24.00;38.60;;;;;;5061429;28;20032;-66
2021/04/20 05:30:54;;;;;;;3.28;1.25;;;23.80;38.70;;;;;;5060345;28;20028;-64
2021/04/20 05:33:21;;;;;;;2.92;1.00;;;23.60;38.70;;;;;;5061967;28;20047;-63
2021/04/20 05:35:48;;;;;;;3.08;1.30;;;23.30;40.40;;;;;;5058074;28;20028;-65
2021/04/20 05:38:19;;;;;;;2.28;1.10;;;23.30;39.70;;;;;;5057722;28;20029;-66
2021/04/20 05:40:47;;;;;;;3.25;1.40;;;23.10;40.50;;;;;;5058649;28;20029;-63
2021/04/20 05:43:14;;;;;;;5.90;1.58;;;23.10;41.40;;;;;;5062403;28;20036;-66
2021/04/20 05:45:41;;;;;;;3.97;1.40;;;23.00;41.50;;;;;;5060622;28;20036;-66
2021/04/20 05:48:11;;;;;;;2.28;1.10;;;22.90;42.20;;;;;;5057617;28;20213;-66
2021/04/20 05:50:38;;;;;;;3.85;1.35;;;22.80;42.30;;;;;;5059012;28;20194;-64
2021/04/20 05:53:05;;;;;;;2.40;1.10;;;22.70;42.50;;;;;;5058812;28;20426;-63
2021/04/20 05:55:33;;;;;;;2.45;1.30;;;22.60;42.70;;;;;;5047891;28;20130;-67
2021/04/20 05:58:00;;;;;;;2.53;1.52;;;22.50;41.70;;;;;;5048764;28;20079;-67
2021/04/20 06:00:27;;;;;;;3.63;1.17;;;22.50;42.40;;;;;;5056642;28;20036;-66
2021/04/20 06:02:56;;;;;;;4.30;1.50;;;22.40;42.40;;;;;;5060831;28;20021;-67
2021/04/20 06:05:27;;;;;;;6.13;1.98;;;22.40;43.00;;;;;;5058182;28;20024;-67
2021/04/20 06:08:02;;;;;;;3.40;1.35;;;22.50;43.10;;;;;;5046646;28;20036;-68
2021/04/20 06:10:31;;;;;;;3.65;1.60;;;22.50;43.40;;;;;;5049015;28;20028;-70
2021/04/20 06:12:58;;;;;;;3.08;1.73;;;22.40;44.20;;;;;;5059197;28;20025;-67
2021/04/20 06:15:26;;;;;;;4.60;1.80;;;22.20;44.70;;;;;;5050505;28;20490;-68
2021/04/20 06:17:55;;;;;;;3.60;1.73;;;22.10;45.50;;;;;;5057797;28;20020;-74
2021/04/20 06:20:24;;;;;;;4.80;2.03;;;22.00;45.10;;;;;;5050744;28;20609;-68
2021/04/20 06:23:04;;;;;;;4.60;2.10;;;21.90;45.40;;;;;;5053086;28;20032;-70
2021/04/20 06:25:32;;;;;;;3.92;1.48;;;21.90;45.40;;;;;;5053236;28;20033;-70
2021/04/20 06:27:59;;;;;;;4.63;1.80;;;21.70;45.90;;;;;;5053481;28;20036;-69
2021/04/20 06:30:28;;;;;;;4.30;1.75;;;21.60;46.30;;;;;;5047108;28;20123;-73
2021/04/20 06:32:55;;;;;;;4.00;1.77;;;21.60;46.10;;;;;;5048743;28;20062;-70
2021/04/20 06:35:23;;;;;;;6.28;1.70;;;21.50;46.30;;;;;;5057300;28;20023;-68
2021/04/20 06:37:52;;;;;;;5.18;1.92;;;21.50;46.20;;;;;;5047937;28;20032;-67
2021/04/20 06:40:29;;;;;;;5.55;2.00;;;21.40;46.50;;;;;;5053703;28;20494;-70
2021/04/20 06:43:01;;;;;;;5.80;1.92;;;21.30;46.90;;;;;;5058276;28;20016;-71
2021/04/20 06:45:51;;;;;;;5.72;2.23;;;21.20;47.00;;;;;;5042834;28;1976364;-67
2021/04/20 06:48:39;;;;;;;4.40;1.90;;;21.10;47.90;;;;;;5054173;28;20037;-67
2021/04/20 06:51:17;;;;;;;4.20;1.80;;;21.00;47.80;;;;;;5049008;28;20032;-69
2021/04/20 06:54:01;;;;;;;3.92;1.92;;;20.90;48.30;;;;;;5054620;28;20107;-68
2021/04/20 06:56:39;;;;;;;6.80;2.00;;;20.90;48.90;;;;;;5048351;28;20032;-72
2021/04/20 06:59:36;;;;;;;4.68;2.28;;;20.90;49.10;;;;;;5051658;28;20062;-71
2021/04/20 07:02:29;;;;;;;7.28;2.00;;;20.90;48.70;;;;;;5047219;28;20073;-66
2021/04/20 07:04:59;;;;;;;4.32;2.15;;;21.10;48.70;;;;;;5047397;28;20051;-69
2021/04/20 07:07:38;;;;;;;3.53;2.28;;;21.10;48.30;;;;;;5047335;28;20036;-68
2021/04/20 07:10:34;;;;;;;7.03;2.20;;;21.40;48.00;;;;;;5054480;28;20083;-70
2021/04/20 07:13:07;;;;;;;6.00;1.85;;;21.60;47.30;;;;;;5045349;28;20090;-71
2021/04/20 07:15:35;;;;;;;;;;;21.80;47.20;;;;;;5055554;28;20017;-68
2021/04/20 07:18:38;;;;;;;4.57;2.45;;;21.80;47.60;;;;;;5048109;28;20642;-68
2021/04/20 07:21:24;;;;;;;5.60;2.58;;;21.60;48.00;;;;;;5055626;28;20086;-65
2021/04/20 07:24:18;;;;;;;6.93;2.60;;;21.30;48.80;;;;;;5055000;28;20165;-67
2021/04/20 07:26:54;;;;;;;4.53;2.60;;;20.80;50.50;;;;;;5059063;28;20383;-69
2021/04/20 07:29:45;;;;;;;3.15;2.17;;;20.40;51.30;;;;;;5056379;28;20095;-69
2021/04/20 07:32:15;;;;;;;3.97;2.47;;;20.10;52.40;;;;;;5031633;28;20425;-67
2021/04/20 07:35:06;;;;;;;5.07;2.45;;;19.80;52.80;;;;;;5053677;28;20029;-67
2021/04/20 07:37:51;;;;;;;12.35;6.88;;;19.60;53.80;;;;;;5058412;28;20021;-69
2021/04/20 07:40:28;;;;;;;9.35;4.80;;;19.40;53.80;;;;;;5058779;28;20090;-73
2021/04/20 07:43:29;;;;;;;11.55;6.95;;;19.20;54.50;;;;;;5056473;28;20036;-72
2021/04/20 07:46:34;;;;;;;11.25;7.78;;;19.10;54.60;;;;;;5035548;28;20055;-65
2021/04/20 07:49:20;;;;;;;8.32;3.05;;;18.90;56.40;;;;;;5021236;28;20044;-63
2021/04/20 07:52:20;;;;;;;11.98;3.70;;;18.70;56.40;;;;;;5054757;28;20024;-74
2021/04/20 07:55:06;;;;;;;5.82;3.70;;;18.50;57.40;;;;;;5056231;28;20036;-73
2021/04/20 07:57:47;;;;;;;4.35;2.97;;;18.30;58.00;;;;;;5056885;28;20116;-65
2021/04/20 08:00:19;;;;;;;5.22;3.40;;;18.20;58.10;;;;;;5055090;28;20028;-64
2021/04/20 08:03:04;;;;;;;6.03;3.35;;;18.00;58.70;;;;;;5050500;28;20035;-66
2021/04/20 08:06:02;;;;;;;3.97;2.92;;;18.10;58.10;;;;;;5052616;28;20025;-71
2021/04/20 08:08:52;;;;;;;11.07;3.38;;;18.10;57.80;;;;;;5055923;28;20499;-69
2021/04/20 08:11:58;;;;;;;12.63;6.47;;;18.30;56.50;;;;;;5057538;28;20434;-69
2021/04/20 08:15:04;;;;;;;9.13;4.28;;;18.40;56.30;;;;;;5055218;28;20332;-72
2021/04/20 08:17:54;;;;;;;8.60;4.07;;;18.40;56.20;;;;;;5036672;28;20058;-73
2021/04/20 08:20:26;;;;;;;7.15;3.17;;;18.10;57.10;;;;;;5054837;28;20021;-65
2021/04/20 08:22:56;;;;;;;10.48;2.85;;;18.00;57.20;;;;;;5052369;28;20342;-67
2021/04/20 08:25:54;;;;;;;13.65;3.63;;;18.00;56.60;;;;;;5054635;28;20037;-66
2021/04/20 08:28:31;;;;;;;8.68;2.83;;;17.90;56.60;;;;;;5052527;28;20040;-70
2021/04/20 08:31:16;;;;;;;12.10;2.80;;;17.80;57.00;;;;;;5057203;28;20055;-63
2021/04/20 08:33:47;;;;;;;10.18;3.53;;;17.70;56.60;;;;;;5055254;28;20032;-69
2021/04/20 08:36:31;;;;;;;10.07;4.15;;;17.60;56.70;;;;;;5055605;28;20411;-66
2021/04/20 08:39:15;;;;;;;15.30;4.38;;;17.50;56.30;;;;;;5054827;28;20550;-74
2021/04/20 08:42:20;;;;;;;15.85;4.22;;;17.40;56.40;;;;;;5036201;28;20386;-63
2021/04/20 08:45:09;;;;;;;15.93;4.72;;;17.30;57.20;;;;;;5044199;28;20529;-74
2021/04/20 08:47:58;;;;;;;20.75;5.45;;;17.20;57.60;;;;;;5057203;28;20602;-71
2021/04/20 08:50:27;;;;;;;23.90;5.90;;;17.30;58.40;;;;;;5056111;28;20070;-62
2021/04/20 08:53:24;;;;;;;22.20;5.90;;;17.30;57.50;;;;;;5039673;28;20081;-63
2021/04/20 08:56:26;;;;;;;18.23;5.75;;;17.20;57.10;;;;;;5039674;28;20028;-70
2021/04/20 08:59:09;;;;;;;13.85;5.05;;;17.10;57.60;;;;;;5052451;28;20029;-61
2021/04/20 09:01:43;;;;;;;17.75;4.68;;;17.10;59.20;;;;;;5054619;28;20025;-63
2021/04/20 09:04:44;;;;;;;20.35;7.35;;;17.10;58.50;;;;;;5054953;28;20833;-69
2021/04/20 09:07:26;;;;;;;8.18;3.72;;;16.90;59.00;;;;;;5054890;28;20045;-70
2021/04/20 09:09:55;;;;;;;12.48;3.55;;;16.70;59.40;;;;;;5044094;28;20110;-60
2021/04/20 09:12:24;;;;;;;7.97;2.97;;;16.80;59.30;;;;;;5027777;28;20029;-71
2021/04/20 09:14:54;;;;;;;7.82;3.17;;;16.80;59.50;;;;;;5041477;28;20102;-66
2021/04/20 09:17:27;;;;;;;5.95;2.97;;;16.80;59.30;;;;;;5042559;28;20013;-66
2021/04/20 09:20:02;;;;;;;9.57;3.70;;;16.60;59.90;;;;;;5041085;28;20017;-70
2021/04/20 09:22:51;;;;;;;5.72;3.40;;;16.50;61.00;;;;;;5038270;28;20025;-64
2021/04/20 09:25:35;;;;;;;6.57;3.15;;;16.40;61.30;;;;;;5042050;28;20048;-66
2021/04/20 09:28:15;;;;;;;7.65;3.28;;;16.30;61.10;;;;;;5041513;28;20199;-70
2021/04/20 09:30:49;;;;;;;6.80;2.88;;;16.30;62.00;;;;;;5041513;28;20569;-62
2021/04/20 09:33:31;;;;;;;5.38;3.55;;;16.20;62.40;;;;;;5041350;28;20040;-61
2021/04/20 09:36:00;;;;;;;8.13;3.00;;;16.30;63.10;;;;;;5041604;28;20047;-69
2021/04/20 09:38:29;;;;;;;6.22;3.45;;;16.30;62.40;;;;;;5041023;28;20025;-66
2021/04/20 09:40:58;;;;;;;9.13;2.95;;;16.60;61.00;;;;;;5041664;28;20029;-65
2021/04/20 09:43:25;;;;;;;4.72;3.30;;;16.70;61.70;;;;;;5039332;28;20552;-71
2021/04/20 09:46:33;;;;;;;9.20;3.70;;;16.50;62.00;;;;;;5041415;28;20128;-67
2021/04/20 09:49:03;;;;;;;4.97;2.95;;;16.50;62.20;;;;;;4981348;28;20038;-68
2021/04/20 09:51:38;;;;;;;6.43;3.22;;;16.30;62.90;;;;;;5033335;28;20091;-72
2021/04/20 09:54:26;;;;;;;6.25;3.17;;;16.20;63.20;;;;;;5039733;28;20480;-67
2021/04/20 09:56:56;;;;;;;4.65;2.80;;;16.20;63.50;;;;;;5039168;28;20072;-67
2021/04/20 09:59:29;;;;;;;7.10;3.28;;;16.10;63.80;;;;;;5039207;28;20029;-67
2021/04/20 10:02:04;;;;;;;6.43;3.10;;;16.00;64.00;;;;;;5041404;28;20017;-72
2021/04/20 10:04:40;;;;;;;3.13;2.35;;;16.00;64.70;;;;;;5039692;28;20853;-75
2021/04/20 10:07:19;;;;;;;6.18;2.95;;;15.90;65.10;;;;;;5041427;28;20533;-74
2021/04/20 10:10:15;;;;;;;4.97;3.20;;;15.80;65.70;;;;;;5040685;28;20446;-72
2021/04/20 10:13:32;;;;;;;6.10;3.33;;;15.80;65.90;;;;;;5023224;28;20537;-71
2021/04/20 10:16:16;;;;;;;7.30;3.00;;;15.80;65.50;;;;;;5039170;28;20028;-74
2021/04/20 10:19:05;;;;;;;6.95;3.28;;;15.70;65.60;;;;;;5040376;28;20036;-66
2021/04/20 10:21:51;;;;;;;7.63;3.78;;;15.70;65.90;;;;;;5040967;28;20672;-66
2021/04/20 10:24:24;;;;;;;5.72;2.90;;;15.70;65.70;;;;;;5042347;28;20119;-69
2021/04/20 10:27:06;;;;;;;4.95;3.33;;;15.60;66.10;;;;;;5041881;28;20029;-60
2021/04/20 10:29:42;;;;;;;3.55;2.58;;;15.60;66.30;;;;;;5039674;28;20028;-69
2021/04/20 10:32:29;;;;;;;8.05;3.35;;;15.50;66.70;;;;;;5039813;28;20021;-73
2021/04/20 10:34:58;;;;;;;6.05;2.65;;;15.60;66.00;;;;;;5042807;28;20503;-69
2021/04/20 10:37:37;;;;;;;8.07;3.55;;;15.60;66.50;;;;;;5040588;28;20025;-63
2021/04/20 10:40:15;;;;;;;4.88;3.47;;;15.50;66.50;;;;;;5037460;28;20118;-63
2021/04/20 10:42:49;;;;;;;6.55;3.15;;;15.40;67.20;;;;;;5040064;28;20028;-73
2021/04/20 10:45:21;;;;;;;7.95;3.22;;;15.40;67.50;;;;;;5039826;28;20445;-71
2021/04/20 10:47:54;;;;;;;7.88;3.38;;;15.40;68.30;;;;;;5040499;28;20045;-64
2021/04/20 10:50:25;;;;;;;;;;;15.40;68.10;;;;;;5040801;28;20712;-69
2021/04/20 10:53:09;;;;;;;7.50;3.38;;;15.30;68.60;;;;;;5037166;28;20521;-64
2021/04/20 10:55:42;;;;;;;4.78;3.05;;;15.30;68.50;;;;;;5033181;28;20114;-62
2021/04/20 10:58:12;;;;;;;6.82;3.45;;;15.30;67.70;;;;;;5040406;28;20017;-62
2021/04/20 11:00:40;;;;;;;5.57;3.03;;;15.40;67.50;;;;;;5037635;28;20039;-64
2021/04/20 11:03:08;;;;;;;4.35;2.85;;;15.50;66.00;;;;;;5039850;28;20081;-62
2021/04/20 11:05:36;;;;;;;4.95;3.17;;;15.40;66.20;;;;;;5039857;28;20029;-64
2021/04/20 11:08:03;;;;;;;7.10;3.63;;;15.30;65.80;;;;;;5038133;28;20152;-74
2021/04/20 11:10:37;;;;;;;9.23;5.32;;;15.40;65.20;;;;;;5038580;28;20033;-68
2021/04/20 11:13:05;;;;;;;6.78;3.60;;;15.40;65.10;;;;;;5035815;28;20091;-64
2021/04/20 11:15:33;;;;;;;11.93;3.08;;;15.40;65.70;;;;;;5035516;28;20033;-68
2021/04/20 11:18:13;;;;;;;6.72;3.20;;;15.50;65.80;;;;;;5039058;28;20395;-63
2021/04/20 11:20:47;;;;;;;7.20;3.33;;;15.50;66.10;;;;;;5035787;28;20052;-68
2021/04/20 11:23:22;;;;;;;7.28;3.13;;;15.40;67.10;;;;;;5039040;28;20025;-63
2021/04/20 11:26:04;;;;;;;7.82;3.20;;;15.50;64.80;;;;;;5035481;28;20065;-65
2021/04/20 11:28:47;;;;;;;7.93;3.27;;;15.60;65.20;;;;;;5034853;28;20033;-63
2021/04/20 11:31:20;;;;;;;4.82;2.97;;;15.50;65.70;;;;;;5038686;28;20646;-68
2021/04/20 11:33:50;;;;;;;4.25;2.90;;;15.40;65.50;;;;;;5038802;28;20021;-68
2021/04/20 11:36:48;;;;;;;6.47;3.42;;;15.30;66.70;;;;;;5039548;28;20592;-63
2021/04/20 11:39:25;;;;;;;7.25;3.10;;;15.30;66.20;;;;;;4978673;28;20065;-63
2021/04/20 11:42:02;;;;;;;5.72;3.55;;;15.40;66.30;;;;;;5038360;28;20017;-75
2021/04/20 11:44:40;;;;;;;5.95;3.58;;;15.30;66.60;;;;;;5036595;28;20025;-62
2021/04/20 11:47:09;;;;;;;4.90;2.70;;;15.10;67.30;;;;;;5037614;28;20747;-63
2021/04/20 11:49:43;;;;;;;6.90;3.22;;;14.90;68.00;;;;;;5042788;28;20021;-74
2021/04/20 11:52:18;;;;;;;10.68;3.85;;;14.70;69.00;;;;;;5041453;28;20033;-71
2021/04/20 11:54:53;;;;;;;10.38;4.20;;;14.70;70.10;;;;;;5042489;28;20086;-74
2021/04/20 11:57:22;;;;;;;8.40;4.45;;;14.60;70.40;;;;;;5040830;28;20032;-62
2021/04/20 11:59:50;;;;;;;6.68;4.32;;;14.60;70.60;;;;;;5039354;28;20024;-65
2021/04/20 12:02:30;;;;;;;7.30;3.90;;;14.60;70.70;;;;;;5046447;28;20020;-66
2021/04/20 12:05:18;;;;;;;6.00;3.55;;;14.60;70.90;;;;;;5043457;28;20033;-68
2021/04/20 12:07:50;;;;;;;6.35;3.92;;;14.50;71.00;;;;;;5046009;28;20025;-62
2021/04/20 12:10:18;;;;;;;7.53;3.70;;;14.50;70.90;;;;;;5051604;28;20112;-63
2021/04/20 12:12:51;;;;;;;8.05;4.03;;;14.40;71.30;;;;;;5046806;28;20025;-63
2021/04/20 12:15:20;;;;;;;8.88;3.83;;;14.40;71.50;;;;;;5048355;28;20802;-62
2021/04/20 12:17:49;;;;;;;6.97;3.58;;;14.40;71.10;;;;;;5048729;28;20364;-75
2021/04/20 12:20:22;;;;;;;7.43;3.47;;;14.30;71.40;;;;;;5051915;28;20431;-62
2021/04/20 12:22:53;;;;;;;;;;;14.30;71.60;;;;;;5050292;28;20553;-69
2021/04/20 12:25:21;;;;;;;5.72;3.47;;;14.20;71.90;;;;;;5045957;28;19909;-64
2021/04/20 12:28:05;;;;;;;6.97;3.70;;;14.10;72.80;;;;;;5029590;28;20070;-62
2021/04/20 12:30:33;;;;;;;5.72;3.92;;;14.00;72.60;;;;;;5049890;28;20033;-73
2021/04/20 12:33:02;;;;;;;6.30;3.78;;;14.00;73.00;;;;;;5047699;28;20035;-76
2021/04/20 12:35:30;;;;;;;8.25;3.67;;;14.00;72.90;;;;;;5046778;28;20035;-63
2021/04/20 12:38:04;;;;;;;7.60;3.75;;;14.00;72.50;;;;;;5048178;28;20055;-63
2021/04/20 12:40:33;;;;;;;6.97;3.80;;;13.90;72.60;;;;;;5048283;28;20489;-71
2021/04/20 12:43:05;;;;;;;6.70;3.78;;;14.00;72.10;;;;;;5049620;28;20390;-70
2021/04/20 12:45:37;;;;;;;6.95;3.55;;;14.00;71.00;;;;;;5051725;28;20025;-64
2021/04/20 12:48:07;;;;;;;5.63;3.08;;;14.00;70.60;;;;;;5047752;28;20206;-63
2021/04/20 12:50:46;;;;;;;4.53;3.45;;;14.00;70.00;;;;;;5048238;28;20583;-74
2021/04/20 12:53:18;;;;;;;7.90;3.28;;;14.10;69.30;;;;;;5047411;28;20033;-63
2021/04/20 12:55:46;;;;;;;4.90;3.07;;;14.10;69.00;;;;;;5046908;28;20677;-75
2021/04/20 12:58:28;;;;;;;4.55;2.85;;;14.10;69.10;;;;;;5047171;28;20032;-65
2021/04/20 13:01:02;;;;;;;6.80;2.75;;;14.20;67.30;;;;;;5044151;28;20042;-61
2021/04/20 13:03:31;;;;;;;5.40;3.15;;;14.20;67.40;;;;;;5047589;28;20368;-73
2021/04/20 13:06:00;;;;;;;6.18;3.35;;;14.10;68.20;;;;;;5049651;28;20033;-75
2021/04/20 13:08:28;;;;;;;7.97;3.38;;;13.90;68.50;;;;;;5046678;28;20116;-63
2021/04/20 13:10:58;;;;;;;7.28;3.05;;;13.90;69.20;;;;;;5045760;28;20050;-69
2021/04/20 13:13:30;;;;;;;5.35;2.60;;;13.80;69.10;;;;;;5049190;28;20496;-63
2021/04/20 13:16:03;;;;;;;5.70;2.78;;;13.70;69.50;;;;;;5051433;28;20086;-62
2021/04/20 13:18:36;;;;;;;6.43;3.47;;;13.60;69.10;;;;;;5044516;28;20050;-63
2021/04/20 13:21:05;;;;;;;5.13;3.05;;;13.50;69.10;;;;;;5051614;28;20040;-62